createdAt,value
2023-02-20T00:00:21.030Z,15.95
2023-02-20T00:05:21.576Z,18.50
2023-02-20T00:10:20.812Z,16.25
2023-02-20T00:15:20.920Z,22.15
2023-02-20T00:20:24.070Z,17.27
2023-02-20T00:25:23.504Z,15.00
2023-02-20T00:30:24.535Z,13.90
2023-02-20T00:35:26.222Z,15.73
2023-02-20T00:40:26.378Z,14.60
2023-02-20T00:45:25.147Z,16.65
2023-02-20T00:50:25.360Z,17.75
2023-02-20T00:55:24.246Z,16.75
2023-02-20T01:00:25.399Z,16.38
2023-02-20T01:05:25.910Z,17.58
2023-02-20T01:10:24.836Z,19.45
2023-02-20T01:15:23.726Z,14.68
2023-02-20T01:20:22.644Z,14.63
2023-02-20T01:25:22.862Z,15.80
2023-02-20T01:30:21.694Z,16.25
2023-02-20T01:35:20.453Z,17.55
2023-02-20T01:40:21.911Z,15.75
2023-02-20T01:45:33.931Z,17.70
2023-02-20T01:50:36.563Z,26.77
2023-02-20T01:55:41.134Z,22.37
2023-02-20T02:00:44.314Z,18.13
2023-02-20T02:05:47.291Z,19.25
2023-02-20T02:10:51.550Z,16.73
2023-02-20T02:15:54.710Z,13.60
2023-02-20T02:21:40.969Z,18.08
2023-02-20T02:27:22.926Z,15.68
2023-02-20T02:32:56.166Z,17.20
2023-02-20T02:38:07.522Z,16.00
2023-02-20T02:43:14.790Z,13.80
2023-02-20T02:48:19.004Z,13.25
2023-02-20T02:53:19.418Z,14.07
2023-02-20T02:58:19.496Z,14.98
2023-02-20T03:03:22.718Z,12.48
2023-02-20T03:08:37.082Z,13.68
2023-02-20T03:13:56.836Z,12.57
2023-02-20T03:19:02.796Z,9.93
2023-02-20T03:24:05.601Z,12.98
2023-02-20T03:29:10.353Z,11.85
2023-02-20T03:34:30.902Z,10.43
2023-02-20T03:39:51.931Z,12.27
2023-02-20T03:44:51.071Z,14.18
2023-02-20T03:49:54.699Z,12.68
2023-02-20T03:54:55.784Z,8.10
2023-02-20T03:59:59.143Z,7.03
2023-02-20T04:05:05.480Z,8.80
2023-02-20T04:10:09.322Z,12.00
2023-02-20T04:15:11.334Z,8.48
2023-02-20T04:20:11.381Z,10.75
2023-02-20T04:25:26.383Z,11.38
2023-02-20T04:30:25.895Z,13.20
2023-02-20T04:35:25.032Z,11.25
2023-02-20T04:40:26.873Z,12.38
2023-02-20T04:45:26.077Z,12.85
2023-02-20T04:50:26.838Z,12.30
2023-02-20T04:55:28.063Z,5.85
2023-02-20T05:00:30.161Z,4.47
2023-02-20T05:05:30.503Z,7.53
2023-02-20T05:10:32.573Z,5.55
2023-02-20T05:15:32.687Z,7.15
2023-02-20T05:20:49.051Z,9.50
2023-02-20T05:25:49.139Z,7.97
2023-02-20T05:30:48.599Z,9.30
2023-02-20T05:35:47.480Z,7.80
2023-02-20T05:40:46.586Z,6.43
2023-02-20T05:45:47.375Z,6.85
2023-02-20T05:50:46.181Z,9.10
2023-02-20T05:55:49.609Z,7.03
2023-02-20T06:00:49.936Z,7.50
2023-02-20T06:05:52.127Z,6.03
2023-02-20T06:10:51.646Z,11.75
2023-02-20T06:15:51.839Z,8.65
2023-02-20T06:20:50.735Z,10.80
2023-02-20T06:25:49.501Z,12.48
2023-02-20T06:30:48.238Z,10.02
2023-02-20T06:35:48.379Z,7.85
2023-02-20T06:40:47.059Z,8.68
2023-02-20T06:45:46.196Z,8.07
2023-02-20T06:50:44.977Z,8.15
2023-02-20T06:55:45.105Z,7.15
2023-02-20T07:00:43.885Z,15.50
2023-02-20T07:05:43.154Z,11.02
2023-02-20T07:10:44.457Z,9.82
2023-02-20T07:15:43.434Z,10.23
2023-02-20T07:20:42.448Z,9.43
2023-02-20T07:25:41.220Z,10.48
2023-02-20T07:30:41.547Z,8.88
2023-02-20T07:35:40.354Z,9.15
2023-02-20T07:40:40.248Z,8.13
2023-02-20T07:45:39.810Z,12.13
2023-02-20T07:50:40.019Z,12.10
2023-02-20T07:55:38.757Z,11.10
2023-02-20T08:00:37.500Z,15.30
2023-02-20T08:05:48.150Z,14.07
2023-02-20T08:10:52.236Z,8.32
2023-02-20T08:15:55.919Z,9.52
2023-02-20T08:20:54.623Z,10.45
2023-02-20T08:25:54.899Z,7.47
2023-02-20T08:30:53.739Z,14.45
2023-02-20T08:35:54.315Z,10.70
2023-02-20T08:40:54.841Z,7.07
2023-02-20T08:45:53.653Z,6.18
2023-02-20T08:50:52.925Z,3.10
2023-02-20T08:55:51.828Z,4.40
2023-02-20T09:00:53.043Z,6.20
2023-02-20T09:05:52.069Z,5.95
2023-02-20T09:10:50.916Z,13.45
2023-02-20T09:15:51.420Z,16.67
2023-02-20T09:20:51.120Z,6.85
2023-02-20T09:25:50.248Z,9.07
2023-02-20T09:30:49.082Z,12.77
2023-02-20T09:35:49.603Z,9.60
2023-02-20T09:40:52.175Z,9.40
2023-02-20T09:45:59.519Z,10.87
2023-02-20T09:51:03.417Z,7.47
2023-02-20T09:56:03.095Z,10.07
2023-02-20T10:01:04.324Z,15.80
2023-02-20T10:06:12.275Z,21.75
2023-02-20T10:11:17.268Z,13.98
2023-02-20T10:16:26.434Z,6.53
2023-02-20T10:21:42.249Z,7.85
2023-02-20T10:26:48.014Z,6.47
2023-02-20T10:31:53.914Z,10.60
2023-02-20T10:36:57.914Z,8.77
2023-02-20T10:42:02.412Z,5.32
2023-02-20T10:47:06.399Z,16.42
2023-02-20T10:52:25.689Z,14.00
2023-02-20T10:57:35.707Z,6.82
2023-02-20T11:02:38.832Z,5.07
2023-02-20T11:07:38.967Z,4.60
2023-02-20T11:12:42.055Z,14.57
2023-02-20T11:17:43.266Z,9.05
2023-02-20T11:22:48.808Z,10.80
2023-02-20T11:27:51.083Z,5.63
2023-02-20T11:32:51.426Z,5.75
2023-02-20T11:37:55.684Z,7.18
2023-02-20T11:42:54.773Z,4.65
2023-02-20T11:48:10.130Z,5.60
2023-02-20T11:53:20.869Z,8.90
2023-02-20T11:58:25.138Z,20.20
2023-02-20T12:03:26.001Z,7.40
2023-02-20T12:08:44.815Z,4.30
2023-02-20T12:13:46.799Z,5.40
2023-02-20T12:18:55.792Z,6.70
2023-02-20T12:24:12.599Z,5.80
2023-02-20T12:29:23.036Z,5.47
2023-02-20T12:34:42.907Z,7.05
2023-02-20T12:39:54.767Z,7.15
2023-02-20T12:45:29.172Z,6.18
2023-02-20T12:50:43.918Z,9.13
2023-02-20T12:55:56.562Z,11.95
2023-02-20T13:01:02.544Z,5.63
2023-02-20T13:06:04.357Z,8.48
2023-02-20T13:16:15.216Z,4.50
2023-02-20T13:21:22.625Z,7.28
2023-02-20T13:26:50.492Z,13.15
2023-02-20T13:31:51.716Z,7.40
2023-02-20T13:36:53.822Z,8.93
2023-02-20T13:42:06.132Z,7.25
2023-02-20T13:47:28.415Z,13.27
2023-02-20T13:52:42.405Z,5.05
2023-02-20T13:57:57.131Z,8.93
2023-02-20T14:02:59.872Z,3.67
2023-02-20T14:08:03.010Z,5.25
2023-02-20T14:13:16.801Z,3.15
2023-02-20T14:18:21.161Z,5.60
2023-02-20T14:23:31.136Z,27.30
2023-02-20T14:28:38.775Z,11.98
2023-02-20T14:33:41.682Z,20.95
2023-02-20T14:38:59.738Z,9.18
2023-02-20T14:44:15.148Z,8.70
2023-02-20T14:49:29.497Z,10.80
2023-02-20T14:54:36.827Z,10.00
2023-02-20T14:59:40.271Z,5.53
2023-02-20T15:04:51.692Z,10.05
2023-02-20T15:09:52.755Z,7.97
2023-02-20T15:14:59.562Z,6.07
2023-02-20T15:20:02.365Z,10.13
2023-02-20T15:25:17.245Z,11.40
2023-02-20T15:30:19.805Z,12.27
2023-02-20T15:35:21.917Z,11.40
2023-02-20T15:40:24.173Z,12.15
2023-02-20T15:45:24.942Z,20.80
2023-02-20T15:50:24.035Z,20.50
2023-02-20T15:55:25.033Z,23.48
2023-02-20T16:00:27.860Z,19.60
2023-02-20T16:10:25.933Z,20.48
2023-02-20T16:15:26.605Z,21.15
2023-02-20T16:20:27.891Z,30.20
2023-02-20T16:25:27.385Z,30.25
2023-02-20T16:30:34.386Z,33.03
2023-02-20T16:35:33.635Z,24.80
2023-02-20T16:40:35.062Z,22.65
2023-02-20T16:45:36.833Z,31.35
2023-02-20T16:50:35.624Z,22.42
2023-02-20T16:55:39.652Z,22.73
2023-02-20T17:00:55.089Z,16.42
2023-02-20T17:05:59.781Z,20.10
2023-02-20T17:10:59.089Z,15.57
2023-02-20T17:15:59.628Z,20.63
2023-02-20T17:20:59.057Z,14.30
2023-02-20T17:25:57.991Z,20.45
2023-02-20T17:30:56.878Z,18.15
2023-02-20T17:35:57.266Z,23.10
2023-02-20T17:40:58.437Z,18.15
2023-02-20T17:45:57.233Z,19.40
2023-02-20T17:50:57.649Z,17.92
2023-02-20T17:55:56.677Z,21.15
2023-02-20T18:00:55.550Z,13.63
2023-02-20T18:05:55.328Z,10.73
2023-02-20T18:10:55.508Z,14.65
2023-02-20T18:15:54.438Z,14.70
2023-02-20T18:20:54.336Z,19.65
2023-02-20T18:25:53.563Z,7.20
2023-02-20T18:30:56.768Z,10.38
2023-02-20T18:36:07.665Z,9.32
2023-02-20T18:41:10.181Z,7.20
2023-02-20T18:46:10.588Z,9.43
2023-02-20T18:51:10.470Z,10.27
2023-02-20T18:56:13.323Z,10.93
2023-02-20T19:01:19.824Z,7.18
2023-02-20T19:06:26.864Z,9.80
2023-02-20T19:11:25.662Z,11.60
2023-02-20T19:16:26.005Z,8.43
2023-02-20T19:21:25.070Z,8.20
2023-02-20T19:26:23.858Z,10.85
2023-02-20T19:31:22.688Z,10.02
2023-02-20T19:36:22.787Z,7.95
2023-02-20T19:41:22.730Z,13.13
2023-02-20T19:46:23.441Z,9.80
2023-02-20T19:51:24.192Z,8.52
2023-02-20T19:56:23.015Z,14.98
2023-02-20T20:01:21.873Z,7.38
2023-02-20T20:06:20.968Z,8.30
2023-02-20T20:11:21.255Z,16.25
2023-02-20T20:16:20.082Z,11.48
2023-02-20T20:21:20.053Z,7.50
2023-02-20T20:26:20.257Z,6.95
2023-02-20T20:31:22.701Z,7.82
2023-02-20T20:36:22.511Z,8.10
2023-02-20T20:41:24.963Z,7.78
2023-02-20T20:46:27.391Z,8.52
2023-02-20T20:51:27.480Z,8.18
2023-02-20T20:56:27.673Z,9.75
2023-02-20T21:01:26.535Z,9.93
2023-02-20T21:06:25.473Z,8.70
2023-02-20T21:11:24.297Z,9.48
2023-02-20T21:16:24.922Z,9.20
2023-02-20T21:21:26.752Z,8.77
2023-02-20T21:26:25.734Z,8.75
2023-02-20T21:31:25.960Z,8.88
2023-02-20T21:36:25.471Z,7.75
2023-02-20T21:41:43.381Z,9.23
2023-02-20T21:46:43.664Z,8.60
2023-02-20T21:51:42.538Z,10.95
2023-02-20T21:56:41.391Z,8.93
2023-02-20T22:01:40.097Z,9.88
2023-02-20T22:06:39.516Z,8.60
2023-02-20T22:11:55.694Z,9.43
2023-02-20T22:17:11.880Z,8.18
2023-02-20T22:22:29.372Z,6.10
2023-02-20T22:27:45.451Z,7.18
2023-02-20T22:33:01.378Z,8.57
2023-02-20T22:38:19.199Z,6.13
2023-02-20T22:43:35.964Z,6.22
2023-02-20T22:48:51.852Z,6.03
2023-02-20T22:54:09.515Z,5.80
2023-02-20T22:59:25.870Z,4.97
2023-02-20T23:04:42.030Z,8.50
2023-02-20T23:09:59.590Z,15.43
2023-02-20T23:15:16.355Z,11.57
2023-02-20T23:20:36.366Z,9.90
2023-02-20T23:25:53.639Z,7.85
2023-02-20T23:31:09.759Z,5.20
2023-02-20T23:36:26.975Z,9.38
2023-02-20T23:41:44.651Z,5.43
2023-02-20T23:47:02.941Z,5.38
2023-02-20T23:52:19.598Z,6.13
2023-02-20T23:57:37.047Z,4.88
